createdAt,value
2024-03-14T00:04:21.222Z,100693.59
2024-03-14T00:09:24.046Z,100705.03
2024-03-14T00:14:25.844Z,100703.13
2024-03-14T00:19:27.400Z,100712.81
2024-03-14T00:24:29.079Z,100717.63
2024-03-14T00:29:33.941Z,100712.81
2024-03-14T00:34:37.147Z,100712.03
2024-03-14T00:39:38.717Z,100709.06
2024-03-14T00:44:40.288Z,100706.41
2024-03-14T00:49:41.896Z,100699.88
2024-03-14T00:54:44.295Z,100696.22
2024-03-14T00:59:47.613Z,100691.50
2024-03-14T01:04:51.167Z,100695.66
2024-03-14T01:09:52.703Z,100702.16
2024-03-14T01:14:54.225Z,100697.19
2024-03-14T01:19:56.127Z,100695.16
2024-03-14T01:24:57.860Z,100691.69
2024-03-14T01:29:59.479Z,100688.34
2024-03-14T01:35:01.008Z,100663.44
2024-03-14T01:40:05.436Z,100676.94
2024-03-14T01:45:10.131Z,100660.84
2024-03-14T01:50:12.368Z,100663.63
2024-03-14T01:55:16.174Z,100654.00
2024-03-14T02:00:19.882Z,100651.81
2024-03-14T02:05:38.159Z,100658.28
2024-03-14T02:15:46.854Z,100644.00
2024-03-14T02:20:48.378Z,100654.94
2024-03-14T02:25:50.177Z,100648.78
2024-03-14T02:30:51.709Z,100634.59
2024-03-14T02:35:53.251Z,100637.75
2024-03-14T02:40:54.826Z,100640.63
2024-03-14T02:45:56.344Z,100639.66
2024-03-14T02:50:57.870Z,100635.06
2024-03-14T02:55:59.448Z,100632.81
2024-03-14T03:01:04.608Z,100625.38
2024-03-14T03:06:11.389Z,100622.78
2024-03-14T03:11:12.938Z,100621.97
2024-03-14T03:16:15.106Z,100620.75
2024-03-14T03:21:16.791Z,100616.25
2024-03-14T03:26:20.437Z,100623.91
2024-03-14T03:31:21.961Z,100618.75
2024-03-14T03:36:23.826Z,100611.03
2024-03-14T03:41:25.570Z,100609.25
2024-03-14T03:46:27.103Z,100604.13
2024-03-14T03:51:28.705Z,100610.44
2024-03-14T03:56:30.574Z,100600.91
2024-03-14T04:01:34.471Z,100594.03
2024-03-14T04:06:36.109Z,100590.03
2024-03-14T04:11:38.725Z,100590.63
2024-03-14T04:16:40.302Z,100587.06
2024-03-14T04:21:41.935Z,100584.81
2024-03-14T04:26:44.819Z,100580.50
2024-03-14T04:31:46.203Z,100582.47
2024-03-14T04:36:48.251Z,100575.25
2024-03-14T04:41:53.601Z,100579.13
2024-03-14T04:46:56.088Z,100572.56
2024-03-14T04:51:57.752Z,100580.53
2024-03-14T04:57:02.301Z,100573.28
2024-03-14T05:02:03.893Z,100578.06
2024-03-14T05:07:05.478Z,100573.34
2024-03-14T05:12:08.868Z,100578.59
2024-03-14T05:17:13.417Z,100580.38
2024-03-14T05:22:14.942Z,100578.59
2024-03-14T05:27:16.486Z,100590.00
2024-03-14T05:32:29.443Z,100583.19
2024-03-14T05:37:31.235Z,100580.31
2024-03-14T05:42:32.969Z,100583.75
2024-03-14T05:47:36.560Z,100582.19
2024-03-14T05:52:39.338Z,100589.59
2024-03-14T05:57:41.330Z,100589.31
2024-03-14T06:02:43.195Z,100591.34
2024-03-14T06:07:45.818Z,100587.63
2024-03-14T06:12:47.373Z,100585.50
2024-03-14T06:17:52.710Z,100585.56
2024-03-14T06:22:54.841Z,100596.16
2024-03-14T06:27:56.373Z,100586.41
2024-03-14T06:32:58.013Z,100595.00
2024-03-14T06:38:00.414Z,100597.56
2024-03-14T06:43:01.942Z,100587.25
2024-03-14T06:48:04.820Z,100592.69
2024-03-14T06:53:06.831Z,100588.16
2024-03-14T06:58:08.878Z,100586.88
2024-03-14T07:03:10.423Z,100591.56
2024-03-14T07:08:12.813Z,100597.56
2024-03-14T07:13:14.326Z,100584.69
2024-03-14T07:18:17.923Z,100582.41
2024-03-14T07:23:21.697Z,100576.78
2024-03-14T07:28:23.275Z,100580.88
2024-03-14T07:33:26.539Z,100584.72
2024-03-14T07:38:29.400Z,100593.59
2024-03-14T07:43:31.613Z,100582.19
2024-03-14T07:48:33.236Z,100586.06
2024-03-14T07:53:38.353Z,100598.72
2024-03-14T07:58:40.435Z,100593.31
2024-03-14T08:03:44.134Z,100595.06
2024-03-14T08:08:49.393Z,100597.41
2024-03-14T08:13:52.399Z,100598.03
2024-03-14T08:18:53.943Z,100604.91
2024-03-14T08:23:55.559Z,100605.22
2024-03-14T08:28:57.504Z,100606.31
2024-03-14T08:34:00.026Z,100603.03
2024-03-14T08:39:02.158Z,100607.38
2024-03-14T08:44:06.348Z,100610.34
2024-03-14T08:49:08.095Z,100609.84
2024-03-14T08:54:21.718Z,100606.56
2024-03-14T08:59:23.607Z,100601.50
2024-03-14T09:04:25.195Z,100603.69
2024-03-14T09:09:28.764Z,100595.91
2024-03-14T09:14:31.309Z,100600.56
2024-03-14T09:19:33.311Z,100596.38
2024-03-14T09:24:36.458Z,100595.56
2024-03-14T09:29:38.053Z,100600.09
2024-03-14T09:34:39.604Z,100597.94
2024-03-14T09:39:41.550Z,100601.78
2024-03-14T09:44:44.598Z,100608.16
2024-03-14T09:49:46.670Z,100606.69
2024-03-14T09:54:48.941Z,100598.53
2024-03-14T09:59:51.457Z,100613.16
2024-03-14T10:04:53.260Z,100612.31
2024-03-14T10:09:54.894Z,100614.91
2024-03-14T10:15:03.399Z,100611.13
2024-03-14T10:20:09.452Z,100615.78
2024-03-14T10:25:14.047Z,100610.09
2024-03-14T10:30:15.598Z,100603.72
2024-03-14T10:35:17.444Z,100603.84
2024-03-14T10:40:20.116Z,100606.72
2024-03-14T10:45:22.809Z,100600.47
2024-03-14T10:50:25.140Z,100595.31
2024-03-14T10:55:26.653Z,100593.50
2024-03-14T11:00:28.215Z,100589.66
2024-03-14T11:05:29.783Z,100597.31
2024-03-14T11:10:32.559Z,100603.34
2024-03-14T11:15:37.832Z,100593.44
2024-03-14T11:20:39.543Z,100590.72
2024-03-14T11:25:43.738Z,100589.94
2024-03-14T11:30:52.525Z,100585.06
2024-03-14T11:35:58.120Z,100593.78
2024-03-14T11:41:04.398Z,100594.66
2024-03-14T11:46:06.785Z,100593.97
2024-03-14T11:51:09.690Z,100580.88
2024-03-14T11:56:12.787Z,100587.63
2024-03-14T12:01:19.367Z,100586.50
2024-03-14T12:11:30.277Z,100580.38
2024-03-14T12:16:31.848Z,100570.91
2024-03-14T12:21:33.504Z,100578.47
2024-03-14T12:26:35.341Z,100565.97
2024-03-14T12:31:37.101Z,100570.25
2024-03-14T12:36:40.238Z,100561.88
2024-03-14T12:41:41.930Z,100562.88
2024-03-14T12:46:44.827Z,100561.19
2024-03-14T12:51:55.638Z,100550.38
2024-03-14T12:56:57.449Z,100545.41
2024-03-14T13:02:02.154Z,100538.41
2024-03-14T13:07:05.734Z,100532.78
2024-03-14T13:12:20.418Z,100535.31
2024-03-14T13:17:22.994Z,100531.75
2024-03-14T13:22:25.381Z,100526.53
2024-03-14T13:27:26.983Z,100530.19
2024-03-14T13:32:29.349Z,100517.31
2024-03-14T13:37:30.927Z,100519.81
2024-03-14T13:42:32.539Z,100508.84
2024-03-14T13:47:37.934Z,100506.28
2024-03-14T13:52:40.371Z,100505.50
2024-03-14T13:57:42.188Z,100507.81
2024-03-14T14:02:43.978Z,100501.19
2024-03-14T14:07:51.404Z,100487.13
2024-03-14T14:12:55.923Z,100486.91
2024-03-14T14:17:57.904Z,100482.81
2024-03-14T14:23:00.255Z,100478.53
2024-03-14T14:28:01.778Z,100478.88
2024-03-14T14:33:04.877Z,100474.25
2024-03-14T14:38:06.522Z,100468.84
2024-03-14T14:43:08.110Z,100463.44
2024-03-14T14:48:11.245Z,100464.16
2024-03-14T14:53:17.470Z,100457.44
2024-03-14T14:58:19.147Z,100446.84
2024-03-14T15:03:23.216Z,100452.00
2024-03-14T15:08:26.074Z,100442.69
2024-03-14T15:13:27.745Z,100438.16
2024-03-14T15:18:30.586Z,100434.00
2024-03-14T15:23:33.239Z,100431.41
2024-03-14T15:28:36.595Z,100439.25
2024-03-14T15:33:38.190Z,100432.16
2024-03-14T15:38:39.784Z,100419.66
2024-03-14T15:43:41.387Z,100427.78
2024-03-14T15:48:43.004Z,100414.44
2024-03-14T15:53:44.821Z,100412.78
2024-03-14T15:58:46.347Z,100406.72
2024-03-14T16:03:49.759Z,100401.84
2024-03-14T16:08:55.661Z,100404.03
2024-03-14T16:13:59.687Z,100392.59
2024-03-14T16:19:05.574Z,100391.59
2024-03-14T16:24:08.067Z,100382.97
2024-03-14T16:29:09.699Z,100383.81
2024-03-14T16:34:11.892Z,100382.47
2024-03-14T16:39:20.531Z,100375.94
2024-03-14T16:44:22.485Z,100376.94
2024-03-14T16:49:24.012Z,100372.81
2024-03-14T16:54:31.064Z,100375.94
2024-03-14T16:59:32.725Z,100361.25
2024-03-14T17:04:34.243Z,100371.06
2024-03-14T17:09:35.902Z,100363.97
2024-03-14T17:14:37.552Z,100365.56
2024-03-14T17:19:39.227Z,100364.34
2024-03-14T17:24:40.822Z,100363.88
2024-03-14T17:29:42.694Z,100357.44
2024-03-14T17:34:44.214Z,100352.13
2024-03-14T17:39:45.864Z,100359.03
2024-03-14T17:44:47.504Z,100361.28
2024-03-14T17:49:49.011Z,100366.00
2024-03-14T17:54:50.533Z,100360.06
2024-03-14T17:59:52.034Z,100365.75
2024-03-14T18:04:53.662Z,100366.69
2024-03-14T18:09:55.552Z,100363.88
2024-03-14T18:14:57.072Z,100362.09
2024-03-14T18:19:58.642Z,100347.06
2024-03-14T18:25:01.322Z,100361.53
2024-03-14T18:30:03.456Z,100347.66
2024-03-14T18:35:05.407Z,100351.81
2024-03-14T18:40:10.048Z,100352.03
2024-03-14T18:45:12.674Z,100339.09
2024-03-14T18:50:14.333Z,100358.28
2024-03-14T18:55:15.907Z,100353.16
2024-03-14T19:00:20.962Z,100349.00
2024-03-14T19:05:28.347Z,100339.44
2024-03-14T19:10:32.879Z,100344.91
2024-03-14T19:15:36.135Z,100342.28
2024-03-14T19:20:37.737Z,100325.81
2024-03-14T19:25:40.030Z,100315.06
2024-03-14T19:30:41.946Z,100321.03
2024-03-14T19:35:44.429Z,100310.84
2024-03-14T19:40:46.744Z,100307.72
2024-03-14T19:45:48.940Z,100303.78
2024-03-14T19:50:50.492Z,100299.50
2024-03-14T19:55:52.009Z,100292.53
2024-03-14T20:00:53.785Z,100289.25
2024-03-14T20:05:55.356Z,100283.34
2024-03-14T20:10:56.963Z,100277.72
2024-03-14T20:16:01.062Z,100258.38
2024-03-14T20:21:02.631Z,100274.91
2024-03-14T20:26:12.334Z,100282.66
2024-03-14T20:31:14.890Z,100263.22
2024-03-14T20:36:16.729Z,100252.97
2024-03-14T20:41:24.172Z,100243.25
2024-03-14T20:46:25.926Z,100242.59
2024-03-14T20:51:29.145Z,100234.97
2024-03-14T20:56:43.108Z,100227.69
2024-03-14T21:01:44.918Z,100223.19
2024-03-14T21:06:46.571Z,100224.97
2024-03-14T21:11:50.073Z,100220.84
2024-03-14T21:16:52.732Z,100216.16
2024-03-14T21:21:54.242Z,100213.34
2024-03-14T21:26:56.683Z,100212.81
2024-03-14T21:31:58.197Z,100210.66
2024-03-14T21:37:00.419Z,100213.16
2024-03-14T21:42:02.152Z,100204.28
2024-03-14T21:47:03.870Z,100211.59
2024-03-14T21:52:05.618Z,100204.66
2024-03-14T21:57:07.303Z,100203.94
2024-03-14T22:02:09.622Z,100205.50
2024-03-14T22:07:11.221Z,100201.41
2024-03-14T22:12:12.835Z,100199.31
2024-03-14T22:17:14.644Z,100193.41
2024-03-14T22:22:16.464Z,100187.59
2024-03-14T22:27:18.665Z,100183.41
2024-03-14T22:32:20.217Z,100180.53
2024-03-14T22:37:21.760Z,100176.66
2024-03-14T22:42:23.500Z,100178.41
2024-03-14T22:47:25.456Z,100170.31
2024-03-14T22:52:27.607Z,100165.13
2024-03-14T22:57:29.197Z,100158.94
2024-03-14T23:02:30.729Z,100160.63
2024-03-14T23:07:32.565Z,100152.19
2024-03-14T23:12:34.302Z,100145.56
2024-03-14T23:17:36.807Z,100143.91
2024-03-14T23:22:38.367Z,100140.97
2024-03-14T23:27:39.975Z,100138.22
2024-03-14T23:32:42.680Z,100138.81
2024-03-14T23:37:46.493Z,100134.06
2024-03-14T23:42:48.134Z,100128.69
2024-03-14T23:47:50.278Z,100127.19
2024-03-14T23:52:51.972Z,100121.13
2024-03-14T23:57:56.954Z,100113.59
